createdAt,value
2023-02-17T00:01:26.759Z,98826.94
2023-02-17T00:03:54.069Z,98828.45
2023-02-17T00:06:23.557Z,98831.67
2023-02-17T00:08:50.435Z,98828.96
2023-02-17T00:11:17.660Z,98828.95
2023-02-17T00:13:44.714Z,98835.41
2023-02-17T00:16:22.866Z,98833.54
2023-02-17T00:18:55.064Z,98835.46
2023-02-17T00:21:23.580Z,98830.19
2023-02-17T00:23:50.603Z,98831.73
2023-02-17T00:26:18.481Z,98828.34
2023-02-17T00:28:45.998Z,98823.95
2023-02-17T00:31:20.562Z,98831.59
2023-02-17T00:33:47.787Z,98827.70
2023-02-17T00:36:17.926Z,98825.13
2023-02-17T00:38:45.073Z,98831.42
2023-02-17T00:41:11.672Z,98835.83
2023-02-17T00:43:38.208Z,98843.30
2023-02-17T00:46:05.320Z,98839.38
2023-02-17T00:48:32.369Z,98840.24
2023-02-17T00:50:59.146Z,98844.48
2023-02-17T00:53:25.800Z,98841.60
2023-02-17T00:55:52.537Z,98833.94
2023-02-17T00:58:19.292Z,98831.23
2023-02-17T01:00:46.266Z,98833.79
2023-02-17T01:03:13.088Z,98833.77
2023-02-17T01:05:45.481Z,98832.08
2023-02-17T01:08:14.733Z,98828.00
2023-02-17T01:10:43.262Z,98824.59
2023-02-17T01:13:11.046Z,98825.27
2023-02-17T01:15:50.922Z,98822.37
2023-02-17T01:18:19.396Z,98815.40
2023-02-17T01:20:46.472Z,98814.54
2023-02-17T01:23:13.987Z,98810.13
2023-02-17T01:25:43.840Z,98802.63
2023-02-17T01:28:21.317Z,98804.49
2023-02-17T01:30:49.110Z,98800.58
2023-02-17T01:33:15.735Z,98799.56
2023-02-17T01:35:42.350Z,98798.90
2023-02-17T01:38:08.945Z,98793.98
2023-02-17T01:40:35.753Z,98802.30
2023-02-17T01:43:03.824Z,98792.79
2023-02-17T01:45:38.257Z,98790.92
2023-02-17T01:48:14.545Z,98783.95
2023-02-17T01:50:47.035Z,98780.73
2023-02-17T01:53:17.252Z,98776.14
2023-02-17T01:55:45.028Z,98772.42
2023-02-17T01:58:16.272Z,98771.92
2023-02-17T02:00:42.973Z,98770.06
2023-02-17T02:03:12.956Z,98764.63
2023-02-17T02:05:41.647Z,98759.88
2023-02-17T02:08:10.881Z,98763.11
2023-02-17T02:10:38.050Z,98766.34
2023-02-17T02:13:05.319Z,98757.84
2023-02-17T02:15:40.498Z,98756.48
2023-02-17T02:18:29.667Z,98749.87
2023-02-17T02:21:08.634Z,98747.99
2023-02-17T02:23:50.216Z,98749.21
2023-02-17T02:26:35.030Z,98745.48
2023-02-17T02:29:52.818Z,98737.30
2023-02-17T02:32:54.236Z,98724.23
2023-02-17T02:35:24.972Z,98724.92
2023-02-17T02:38:06.981Z,98720.33
2023-02-17T02:40:37.949Z,98724.57
2023-02-17T02:43:05.787Z,98722.36
2023-02-17T02:45:32.798Z,98721.52
2023-02-17T02:47:59.352Z,98718.46
2023-02-17T02:50:36.222Z,98714.89
2023-02-17T02:53:12.153Z,98715.56
2023-02-17T02:56:17.506Z,98716.08
2023-02-17T02:58:47.075Z,98719.48
2023-02-17T03:01:27.208Z,98721.02
2023-02-17T03:04:19.636Z,98721.20
2023-02-17T03:06:52.937Z,98721.88
2023-02-17T03:09:24.189Z,98726.65
2023-02-17T03:11:52.148Z,98730.91
2023-02-17T03:14:21.647Z,98738.05
2023-02-17T03:16:49.750Z,98741.80
2023-02-17T03:19:19.083Z,98746.41
2023-02-17T03:21:53.532Z,98743.68
2023-02-17T03:24:20.323Z,98740.96
2023-02-17T03:26:47.183Z,98743.17
2023-02-17T03:29:14.023Z,98740.46
2023-02-17T03:31:41.337Z,98739.95
2023-02-17T03:34:08.705Z,98744.20
2023-02-17T03:36:35.224Z,98740.97
2023-02-17T03:39:01.842Z,98742.16
2023-02-17T03:41:28.583Z,98740.63
2023-02-17T03:43:55.217Z,98742.32
2023-02-17T03:46:22.482Z,98742.34
2023-02-17T03:48:49.174Z,98745.05
2023-02-17T03:51:25.506Z,98746.90
2023-02-17T03:53:52.758Z,98745.71
2023-02-17T03:56:19.853Z,98746.55
2023-02-17T03:58:46.449Z,98738.73
2023-02-17T04:01:14.052Z,98731.72
2023-02-17T04:03:41.158Z,98728.14
2023-02-17T04:06:09.144Z,98724.76
2023-02-17T04:08:36.595Z,98724.42
2023-02-17T04:11:05.320Z,98731.89
2023-02-17T04:13:32.659Z,98734.60
2023-02-17T04:16:00.054Z,98724.58
2023-02-17T04:18:27.868Z,98718.79
2023-02-17T04:20:54.636Z,98716.23
2023-02-17T04:23:21.370Z,98712.33
2023-02-17T04:25:48.625Z,98711.65
2023-02-17T04:28:16.208Z,98710.45
2023-02-17T04:30:47.615Z,98709.95
2023-02-17T04:33:14.809Z,98718.29
2023-02-17T04:35:41.847Z,98720.83
2023-02-17T04:38:09.760Z,98723.88
2023-02-17T04:40:37.200Z,98723.02
2023-02-17T04:43:04.613Z,98721.65
2023-02-17T04:45:31.575Z,98716.22
2023-02-17T04:47:58.076Z,98719.45
2023-02-17T04:50:24.602Z,98723.71
2023-02-17T04:52:51.246Z,98724.56
2023-02-17T04:55:18.279Z,98723.02
2023-02-17T04:57:44.930Z,98720.66
2023-02-17T05:00:12.404Z,98730.18
2023-02-17T05:02:40.060Z,98723.22
2023-02-17T05:05:07.528Z,98723.41
2023-02-17T05:07:34.268Z,98722.25
2023-02-17T05:10:00.711Z,98724.98
2023-02-17T05:12:27.409Z,98725.33
2023-02-17T05:14:53.914Z,98732.30
2023-02-17T05:17:20.428Z,98729.77
2023-02-17T05:19:46.936Z,98726.52
2023-02-17T05:22:13.393Z,98719.56
2023-02-17T05:24:40.166Z,98714.11
2023-02-17T05:27:06.811Z,98720.58
2023-02-17T05:29:33.453Z,98722.11
2023-02-17T05:32:00.044Z,98723.13
2023-02-17T05:34:26.826Z,98727.20
2023-02-17T05:36:53.485Z,98722.45
2023-02-17T05:39:20.305Z,98716.84
2023-02-17T05:41:46.966Z,98707.80
2023-02-17T05:44:13.387Z,98696.73
2023-02-17T05:46:40.258Z,98693.17
2023-02-17T05:49:07.424Z,98695.05
2023-02-17T05:51:33.958Z,98688.73
2023-02-17T05:54:00.673Z,98687.86
2023-02-17T05:56:27.460Z,98684.78
2023-02-17T05:58:54.305Z,98680.69
2023-02-17T06:01:21.437Z,98679.83
2023-02-17T06:03:48.307Z,98683.06
2023-02-17T06:06:15.262Z,98686.13
2023-02-17T06:08:42.026Z,98688.33
2023-02-17T06:11:08.555Z,98686.95
2023-02-17T06:13:35.495Z,98693.23
2023-02-17T06:16:02.582Z,98690.48
2023-02-17T06:18:29.084Z,98690.30
2023-02-17T06:20:57.300Z,98688.27
2023-02-17T06:23:25.387Z,98684.15
2023-02-17T06:25:52.152Z,98684.81
2023-02-17T06:28:18.856Z,98685.81
2023-02-17T06:30:45.793Z,98684.21
2023-02-17T06:33:12.654Z,98685.02
2023-02-17T06:35:39.291Z,98685.31
2023-02-17T06:38:06.115Z,98679.31
2023-02-17T06:40:32.774Z,98685.75
2023-02-17T06:42:59.464Z,98684.64
2023-02-17T06:45:26.044Z,98688.52
2023-02-17T06:47:52.668Z,98684.52
2023-02-17T06:50:19.181Z,98679.67
2023-02-17T06:52:45.617Z,98681.67
2023-02-17T06:55:14.268Z,98674.65
2023-02-17T06:57:40.694Z,98672.41
2023-02-17T07:00:07.884Z,98670.49
2023-02-17T07:02:37.946Z,98661.93
2023-02-17T07:05:05.542Z,98654.55
2023-02-17T07:07:32.046Z,98652.15
2023-02-17T07:09:58.579Z,98653.16
2023-02-17T07:12:25.027Z,98647.64
2023-02-17T07:14:51.601Z,98647.27
2023-02-17T07:17:18.443Z,98645.35
2023-02-17T07:19:44.978Z,98652.31
2023-02-17T07:22:11.551Z,98658.57
2023-02-17T07:24:38.160Z,98661.25
2023-02-17T07:27:10.354Z,98656.20
2023-02-17T07:29:37.233Z,98651.43
2023-02-17T07:32:03.999Z,98650.75
2023-02-17T07:34:30.640Z,98652.01
2023-02-17T07:36:57.114Z,98652.27
2023-02-17T07:39:23.752Z,98658.36
2023-02-17T07:41:50.319Z,98659.13
2023-02-17T07:44:16.743Z,98651.85
2023-02-17T07:46:43.276Z,98657.30
2023-02-17T07:49:09.818Z,98663.98
2023-02-17T07:51:36.458Z,98669.20
2023-02-17T07:54:03.302Z,98665.39
2023-02-17T07:56:30.302Z,98672.84
2023-02-17T07:58:57.003Z,98674.77
2023-02-17T08:01:25.298Z,98669.99
2023-02-17T08:03:52.252Z,98671.96
2023-02-17T08:06:22.156Z,98668.12
2023-02-17T08:08:49.990Z,98671.86
2023-02-17T08:11:17.411Z,98669.41
2023-02-17T08:13:45.171Z,98667.83
2023-02-17T08:16:11.697Z,98665.91
2023-02-17T08:18:38.126Z,98661.65
2023-02-17T08:21:05.201Z,98658.73
2023-02-17T08:23:31.939Z,98651.21
2023-02-17T08:25:58.818Z,98643.27
2023-02-17T08:28:25.334Z,98637.11
2023-02-17T08:30:52.012Z,98634.06
2023-02-17T08:33:18.612Z,98626.13
2023-02-17T08:35:45.775Z,98623.20
2023-02-17T08:38:12.434Z,98621.34
2023-02-17T08:40:39.470Z,98617.66
2023-02-17T08:43:09.089Z,98613.20
2023-02-17T08:45:36.194Z,98613.44
2023-02-17T08:48:05.069Z,98612.07
2023-02-17T08:50:33.187Z,98592.96
2023-02-17T08:52:59.699Z,98591.54
2023-02-17T08:55:26.281Z,98585.98
2023-02-17T08:57:53.065Z,98579.70
2023-02-17T09:00:19.778Z,98580.73
2023-02-17T09:02:46.312Z,98573.94
2023-02-17T09:05:14.651Z,98569.56
2023-02-17T09:07:41.363Z,98570.54
2023-02-17T09:10:10.277Z,98575.05
2023-02-17T09:12:36.880Z,98576.28
2023-02-17T09:15:03.720Z,98584.78
2023-02-17T09:17:30.322Z,98582.60
2023-02-17T09:19:56.907Z,98582.54
2023-02-17T09:22:31.541Z,98573.22
2023-02-17T09:24:58.927Z,98567.35
2023-02-17T09:27:25.542Z,98557.98
2023-02-17T09:29:52.090Z,98555.98
2023-02-17T09:32:18.775Z,98550.48
2023-02-17T09:34:45.588Z,98547.08
2023-02-17T09:37:12.738Z,98547.41
2023-02-17T09:39:39.217Z,98544.85
2023-02-17T09:42:06.585Z,98534.24
2023-02-17T09:44:44.869Z,98529.13
2023-02-17T09:47:20.759Z,98528.64
2023-02-17T09:49:54.310Z,98533.74
2023-02-17T09:53:03.552Z,98526.93
2023-02-17T09:55:35.175Z,98513.05
2023-02-17T09:58:19.995Z,98512.63
2023-02-17T10:01:01.740Z,98504.86
2023-02-17T10:03:37.567Z,98499.39
2023-02-17T10:06:07.112Z,98497.39
2023-02-17T10:08:50.816Z,98493.90
2023-02-17T10:11:36.224Z,98488.83
2023-02-17T10:14:07.774Z,98482.70
2023-02-17T10:16:46.338Z,98481.30
2023-02-17T10:19:39.320Z,98475.11
2023-02-17T10:22:08.741Z,98471.52
2023-02-17T10:24:35.785Z,98460.53
2023-02-17T10:27:10.851Z,98457.43
2023-02-17T10:30:08.193Z,98452.59
2023-02-17T10:32:45.358Z,98454.41
2023-02-17T10:35:16.241Z,98453.64
2023-02-17T10:37:46.281Z,98445.38
2023-02-17T10:40:25.293Z,98438.60
2023-02-17T10:42:58.582Z,98439.79
2023-02-17T10:45:45.429Z,98442.03
2023-02-17T10:48:14.934Z,98439.17
2023-02-17T10:50:43.533Z,98437.75
2023-02-17T10:53:19.742Z,98432.16
2023-02-17T10:56:05.211Z,98428.42
2023-02-17T10:58:48.962Z,98425.92
2023-02-17T11:01:15.639Z,98421.08
2023-02-17T11:03:42.490Z,98415.79
2023-02-17T11:06:22.336Z,98408.14
2023-02-17T11:08:54.632Z,98411.74
2023-02-17T11:11:24.313Z,98410.15
2023-02-17T11:14:12.405Z,98406.75
2023-02-17T11:16:43.060Z,98402.35
2023-02-17T11:19:26.846Z,98400.39
2023-02-17T11:21:56.572Z,98394.50
2023-02-17T11:24:23.623Z,98391.11
2023-02-17T11:27:02.390Z,98391.92
2023-02-17T11:29:30.301Z,98384.81
2023-02-17T11:31:58.052Z,98388.41
2023-02-17T11:34:30.934Z,98384.48
2023-02-17T11:37:21.940Z,98378.63
2023-02-17T11:39:53.527Z,98383.64
2023-02-17T11:42:24.287Z,98372.45
2023-02-17T11:44:52.298Z,98373.55
2023-02-17T11:47:29.886Z,98377.02
2023-02-17T11:50:41.696Z,98367.77
2023-02-17T11:53:40.910Z,98366.58
2023-02-17T11:56:17.013Z,98362.65
2023-02-17T11:59:07.157Z,98353.27
2023-02-17T12:01:58.582Z,98358.20
2023-02-17T12:04:33.167Z,98357.66
2023-02-17T12:07:25.084Z,98358.73
2023-02-17T12:10:13.534Z,98359.17
2023-02-17T12:13:03.601Z,98359.27
2023-02-17T12:15:45.358Z,98357.44
2023-02-17T12:18:15.003Z,98354.80
2023-02-17T12:21:14.358Z,98357.17
2023-02-17T12:23:56.384Z,98352.55
2023-02-17T12:26:41.954Z,98347.02
2023-02-17T12:29:18.379Z,98344.59
2023-02-17T12:31:52.827Z,98337.14
2023-02-17T12:34:31.777Z,98330.95
2023-02-17T12:36:59.527Z,98321.33
2023-02-17T12:39:35.298Z,98322.23
2023-02-17T12:42:11.652Z,98315.54
2023-02-17T12:44:44.854Z,98311.51
2023-02-17T12:47:28.202Z,98311.22
2023-02-17T12:50:22.672Z,98305.67
2023-02-17T12:52:55.297Z,98300.95
2023-02-17T12:55:29.110Z,98299.83
2023-02-17T12:57:59.462Z,98300.09
2023-02-17T13:00:46.733Z,98302.39
2023-02-17T13:03:13.786Z,98296.48
2023-02-17T13:05:46.959Z,98297.33
2023-02-17T13:08:22.518Z,98294.38
2023-02-17T13:11:01.025Z,98290.55
2023-02-17T13:13:36.887Z,98290.61
2023-02-17T13:16:07.980Z,98281.64
2023-02-17T13:18:36.426Z,98284.73
2023-02-17T13:21:21.093Z,98273.81
2023-02-17T13:24:05.343Z,98269.55
2023-02-17T13:26:34.635Z,98263.77
2023-02-17T13:29:30.396Z,98263.14
2023-02-17T13:32:00.664Z,98264.77
2023-02-17T13:34:58.688Z,98266.23
2023-02-17T13:37:34.244Z,98267.45
2023-02-17T13:40:02.743Z,98271.42
2023-02-17T13:42:35.201Z,98267.16
2023-02-17T13:45:11.195Z,98261.79
2023-02-17T13:47:39.818Z,98254.98
2023-02-17T13:50:07.354Z,98256.23
2023-02-17T13:52:34.076Z,98249.27
2023-02-17T13:55:04.912Z,98248.43
2023-02-17T13:57:36.820Z,98245.17
2023-02-17T14:00:20.326Z,98246.10
2023-02-17T14:02:56.842Z,98249.51
2023-02-17T14:05:32.988Z,98241.25
2023-02-17T14:08:06.910Z,98228.89
2023-02-17T14:10:34.781Z,98224.70
2023-02-17T14:13:01.486Z,98220.39
2023-02-17T14:15:28.963Z,98211.85
2023-02-17T14:17:55.898Z,98204.66
2023-02-17T14:20:31.758Z,98209.61
2023-02-17T14:23:08.502Z,98210.60
2023-02-17T14:25:38.655Z,98212.24
2023-02-17T14:28:18.726Z,98206.34
2023-02-17T14:30:45.533Z,98206.12
2023-02-17T14:33:15.252Z,98206.99
2023-02-17T14:36:00.036Z,98208.16
2023-02-17T14:38:32.649Z,98196.84
2023-02-17T14:40:59.408Z,98195.48
2023-02-17T14:43:25.866Z,98188.98
2023-02-17T14:45:56.066Z,98186.45
2023-02-17T14:48:23.378Z,98182.86
2023-02-17T14:50:50.066Z,98182.79
2023-02-17T14:53:30.771Z,98180.98
2023-02-17T14:56:19.488Z,98176.27
2023-02-17T14:58:46.115Z,98175.51
2023-02-17T15:01:15.216Z,98173.02
2023-02-17T15:03:41.772Z,98170.39
2023-02-17T15:06:30.211Z,98161.45
2023-02-17T15:08:58.111Z,98168.72
2023-02-17T15:11:31.844Z,98159.35
2023-02-17T15:13:58.579Z,98156.16
2023-02-17T15:16:25.351Z,98158.63
2023-02-17T15:18:52.208Z,98148.71
2023-02-17T15:21:27.779Z,98149.52
2023-02-17T15:23:56.194Z,98144.84
2023-02-17T15:26:22.928Z,98142.70
2023-02-17T15:28:49.892Z,98143.11
2023-02-17T15:31:17.847Z,98140.72
2023-02-17T15:33:44.920Z,98140.11
2023-02-17T15:36:14.451Z,98131.79
2023-02-17T15:38:42.363Z,98124.81
2023-02-17T15:41:18.221Z,98125.73
2023-02-17T15:43:47.281Z,98123.62
2023-02-17T15:46:17.072Z,98105.24
2023-02-17T15:48:45.360Z,98103.13
2023-02-17T15:51:14.277Z,98100.67
2023-02-17T15:53:42.020Z,98093.88
2023-02-17T15:56:12.748Z,98096.38
2023-02-17T15:58:39.990Z,98093.02
2023-02-17T16:01:10.053Z,98083.95
2023-02-17T16:03:36.592Z,98088.26
2023-02-17T16:06:03.067Z,98085.14
2023-02-17T16:08:29.735Z,98089.02
2023-02-17T16:10:56.290Z,98096.79
2023-02-17T16:13:26.603Z,98092.85
2023-02-17T16:15:56.623Z,98091.56
2023-02-17T16:18:24.706Z,98091.09
2023-02-17T16:20:51.985Z,98086.05
2023-02-17T16:23:18.510Z,98081.57
2023-02-17T16:25:47.024Z,98072.63
2023-02-17T16:28:20.014Z,98068.41
2023-02-17T16:30:46.705Z,98063.16
2023-02-17T16:33:13.581Z,98058.30
2023-02-17T16:35:41.187Z,98052.76
2023-02-17T16:38:23.589Z,98040.84
2023-02-17T16:40:52.696Z,98039.64
2023-02-17T16:43:22.727Z,98034.02
2023-02-17T16:45:58.519Z,98029.35
2023-02-17T16:48:28.590Z,98032.70
2023-02-17T16:50:55.866Z,98027.58
2023-02-17T16:53:22.893Z,98031.50
2023-02-17T16:55:52.005Z,98039.86
2023-02-17T16:58:21.578Z,98041.10
2023-02-17T17:00:51.514Z,98043.55
2023-02-17T17:03:21.684Z,98039.48
2023-02-17T17:05:48.876Z,98032.40
2023-02-17T17:08:16.457Z,98034.55
2023-02-17T17:10:45.072Z,98019.52
2023-02-17T17:13:12.454Z,98022.63
2023-02-17T17:15:42.552Z,98025.95
2023-02-17T17:18:15.246Z,98021.64
2023-02-17T17:20:41.929Z,98017.23
2023-02-17T17:23:12.208Z,98009.27
2023-02-17T17:25:40.904Z,98008.55
2023-02-17T17:28:08.407Z,98005.98
2023-02-17T17:30:35.789Z,98009.39
2023-02-17T17:33:02.732Z,98008.79
2023-02-17T17:35:33.225Z,97996.83
2023-02-17T17:37:59.885Z,97996.84
2023-02-17T17:40:30.244Z,97989.15
2023-02-17T17:42:56.844Z,97984.05
2023-02-17T17:45:24.961Z,97981.43
2023-02-17T17:47:52.015Z,97974.34
2023-02-17T17:50:22.356Z,97970.54
2023-02-17T17:52:49.402Z,97965.23
2023-02-17T17:55:16.747Z,97959.48
2023-02-17T17:57:44.336Z,97950.66
2023-02-17T18:00:16.494Z,97935.58
2023-02-17T18:02:43.858Z,97931.10
2023-02-17T18:05:10.762Z,97934.83
2023-02-17T18:07:38.589Z,97942.25
2023-02-17T18:10:07.634Z,97948.05
2023-02-17T18:12:35.050Z,97942.70
2023-02-17T18:15:02.813Z,97931.94
2023-02-17T18:17:31.826Z,97923.76
2023-02-17T18:19:58.655Z,97913.55
2023-02-17T18:22:25.608Z,97920.08
2023-02-17T18:24:52.155Z,97920.70
2023-02-17T18:27:18.773Z,97918.26
2023-02-17T18:29:45.283Z,97908.77
2023-02-17T18:32:12.111Z,97907.15
2023-02-17T18:34:38.952Z,97892.69
2023-02-17T18:37:07.311Z,97882.10
2023-02-17T18:39:34.762Z,97884.34
2023-02-17T18:42:01.510Z,97879.79
2023-02-17T18:44:28.007Z,97879.46
2023-02-17T18:46:54.894Z,97874.95
2023-02-17T18:49:21.431Z,97866.91
2023-02-17T18:51:47.988Z,97870.19
2023-02-17T18:54:14.727Z,97866.61
2023-02-17T18:56:41.663Z,97868.87
2023-02-17T18:59:08.322Z,97862.73
2023-02-17T19:01:36.914Z,97860.83
2023-02-17T19:04:03.523Z,97862.89
2023-02-17T19:06:34.416Z,97863.29
2023-02-17T19:09:01.342Z,97863.74
2023-02-17T19:11:27.868Z,97867.88
2023-02-17T19:13:54.377Z,97875.77
2023-02-17T19:16:24.289Z,97882.14
2023-02-17T19:18:51.480Z,97872.49
2023-02-17T19:21:18.954Z,97873.53
2023-02-17T19:23:45.804Z,97873.35
2023-02-17T19:26:13.842Z,97865.61
2023-02-17T19:28:40.936Z,97862.77
2023-02-17T19:31:13.851Z,97866.14
2023-02-17T19:33:40.561Z,97857.18
2023-02-17T19:36:27.825Z,97851.62
2023-02-17T19:38:56.615Z,97851.36
2023-02-17T19:41:23.743Z,97855.06
2023-02-17T19:43:50.299Z,97856.89
2023-02-17T19:46:19.958Z,97867.31
2023-02-17T19:48:47.272Z,97861.49
2023-02-17T19:51:13.927Z,97866.72
2023-02-17T19:53:41.846Z,97877.73
2023-02-17T19:56:12.481Z,97880.23
2023-02-17T19:58:40.709Z,97885.95
2023-02-17T20:01:10.736Z,97871.60
2023-02-17T20:03:38.569Z,97873.73
2023-02-17T20:06:10.654Z,97869.69
2023-02-17T20:08:38.776Z,97878.35
2023-02-17T20:11:07.955Z,97879.45
2023-02-17T20:13:45.137Z,97879.96
2023-02-17T20:16:15.377Z,97891.20
2023-02-17T20:18:44.505Z,97894.48
2023-02-17T20:21:14.763Z,97895.05
2023-02-17T20:23:41.656Z,97896.77
2023-02-17T20:26:11.673Z,97893.64
2023-02-17T20:28:38.535Z,97896.08
2023-02-17T20:31:08.568Z,97888.36
2023-02-17T20:33:35.905Z,97898.02
2023-02-17T20:36:03.993Z,97896.81
2023-02-17T20:38:30.541Z,97885.68
2023-02-17T20:40:57.326Z,97890.03
2023-02-17T20:43:23.912Z,97882.55
2023-02-17T20:45:50.999Z,97883.02
2023-02-17T20:48:17.714Z,97889.31
2023-02-17T20:50:45.220Z,97888.45
2023-02-17T20:53:12.054Z,97894.15
2023-02-17T20:55:39.081Z,97892.27
2023-02-17T20:58:05.895Z,97889.36
2023-02-17T21:00:32.539Z,97899.61
2023-02-17T21:02:59.260Z,97895.19
2023-02-17T21:05:26.572Z,97901.91
2023-02-17T21:07:53.474Z,97899.91
2023-02-17T21:10:23.773Z,97899.47
2023-02-17T21:12:50.512Z,97896.27
2023-02-17T21:15:17.648Z,97895.53
2023-02-17T21:17:45.106Z,97891.32
2023-02-17T21:20:15.231Z,97896.10
2023-02-17T21:22:41.773Z,97901.48
2023-02-17T21:25:09.728Z,97905.04
2023-02-17T21:27:36.700Z,97903.80
2023-02-17T21:30:08.704Z,97908.16
2023-02-17T21:32:35.523Z,97906.55
2023-02-17T21:35:02.144Z,97908.80
2023-02-17T21:37:28.589Z,97910.15
2023-02-17T21:39:55.029Z,97908.94
2023-02-17T21:42:21.566Z,97909.16
2023-02-17T21:44:48.065Z,97906.99
2023-02-17T21:47:15.187Z,97902.83
2023-02-17T21:49:42.022Z,97902.25
2023-02-17T21:52:08.672Z,97900.40
2023-02-17T21:54:35.213Z,97898.42
2023-02-17T21:57:04.076Z,97897.98
2023-02-17T21:59:31.269Z,97898.42
2023-02-17T22:01:57.810Z,97889.71
2023-02-17T22:04:24.702Z,97881.63
2023-02-17T22:06:51.199Z,97876.66
2023-02-17T22:09:17.968Z,97870.30
2023-02-17T22:11:45.976Z,97877.60
2023-02-17T22:14:18.578Z,97878.04
2023-02-17T22:16:46.389Z,97878.53
2023-02-17T22:19:17.081Z,97875.73
2023-02-17T22:21:45.102Z,97879.17
2023-02-17T22:24:12.650Z,97886.33
2023-02-17T22:26:39.156Z,97887.96
2023-02-17T22:29:06.853Z,97895.05
2023-02-17T22:31:34.197Z,97887.65
2023-02-17T22:34:03.921Z,97877.84
2023-02-17T22:36:35.495Z,97871.17
2023-02-17T22:39:02.865Z,97867.34
2023-02-17T22:41:29.544Z,97863.70
2023-02-17T22:43:56.492Z,97863.92
2023-02-17T22:46:25.220Z,97852.56
2023-02-17T22:48:52.698Z,97846.29
2023-02-17T22:51:25.516Z,97846.13
2023-02-17T22:53:52.326Z,97857.03
2023-02-17T22:56:19.412Z,97856.77
2023-02-17T22:58:46.092Z,97851.53
2023-02-17T23:01:18.430Z,97853.82
2023-02-17T23:03:45.685Z,97852.53
2023-02-17T23:06:15.673Z,97844.68
2023-02-17T23:08:42.471Z,97842.44
2023-02-17T23:11:12.222Z,97842.65
2023-02-17T23:13:39.204Z,97840.54
2023-02-17T23:16:07.747Z,97838.20
2023-02-17T23:18:36.080Z,97838.52
2023-02-17T23:21:10.906Z,97836.01
2023-02-17T23:23:37.728Z,97832.25
2023-02-17T23:26:04.936Z,97843.70
2023-02-17T23:28:32.053Z,97846.14
2023-02-17T23:30:58.769Z,97837.42
2023-02-17T23:33:25.681Z,97847.23
2023-02-17T23:35:52.256Z,97841.59
2023-02-17T23:38:21.532Z,97839.41
2023-02-17T23:40:52.378Z,97834.27
2023-02-17T23:43:19.541Z,97837.15
2023-02-17T23:45:46.087Z,97840.10
2023-02-17T23:48:13.028Z,97839.58
2023-02-17T23:50:39.663Z,97832.07
2023-02-17T23:53:07.021Z,97833.98
2023-02-17T23:55:33.796Z,97841.77
2023-02-17T23:58:00.674Z,97840.11
